ENSD/SDN METAR and TAF weather

Enter ICAO airport designator
Station Type Date Time Source
ENSD METAR 2018/01/19 20:20 UTC NOAA

ENSD 192020Z VRB01KT 9999 FEW027 SCT037 BKN045 02/M05 Q0996 RMK WIND 1138FT 07007KT


Station Type Date Time Source
ENSD Decoded METAR 2018/01/19 20:20 UTC NOAA

Sandane / Anda, Norway (ENSD) 61-50N 006-07E 60M
Jan 19, 2018 - 03:20 PM EST / 2018.01.19 2020 UTC
Wind: Variable at 1 MPH (1 KT):0
Visibility: greater than 7 mile(s):0
Sky conditions: mostly cloudy
Temperature: 35 F (2 C)
Dew Point: 23 F (-5 C)
Relative Humidity: 59%
Pressure (altimeter): 29.41 in. Hg (0996 hPa)
ob: ENSD 192020Z VRB01KT 9999 FEW027 SCT037 BKN045 02/M05 Q0996 RMK WIND 1138FT 07007KT
cycle: 20

Station Type Date Time Source
ENSD TAF UTC NOAA

Error!


Example: see airport list